createdAt,value
2023-05-19T00:01:43.725Z,77.60
2023-05-19T00:04:14.682Z,77.60
2023-05-19T00:06:46.250Z,77.50
2023-05-19T00:09:15.840Z,77.50
2023-05-19T00:11:45.579Z,77.40
2023-05-19T00:14:15.272Z,77.40
2023-05-19T00:16:45.012Z,77.60
2023-05-19T00:19:14.507Z,77.60
2023-05-19T00:21:43.859Z,77.60
2023-05-19T00:24:13.479Z,77.80
2023-05-19T00:26:42.878Z,77.90
2023-05-19T00:29:13.274Z,77.90
2023-05-19T00:31:43.524Z,78.00
2023-05-19T00:34:13.340Z,78.10
2023-05-19T00:36:42.799Z,78.20
2023-05-19T00:39:14.250Z,78.50
2023-05-19T00:41:43.812Z,78.30
2023-05-19T00:44:13.379Z,78.40
2023-05-19T00:46:42.819Z,78.30
2023-05-19T00:49:12.235Z,78.30
2023-05-19T00:51:41.949Z,78.20
2023-05-19T00:54:11.406Z,78.30
2023-05-19T00:56:40.996Z,78.40
2023-05-19T00:59:10.408Z,78.30
2023-05-19T01:01:40.500Z,78.30
2023-05-19T01:04:11.295Z,78.40
2023-05-19T01:06:41.696Z,78.40
2023-05-19T01:09:10.426Z,78.50
2023-05-19T01:11:39.877Z,78.70
2023-05-19T01:14:09.671Z,78.70
2023-05-19T01:16:43.494Z,78.70
2023-05-19T01:19:19.857Z,79.00
2023-05-19T01:22:21.577Z,78.80
2023-05-19T01:25:14.756Z,78.90
2023-05-19T01:28:05.393Z,79.00
2023-05-19T01:30:43.551Z,79.20
2023-05-19T01:33:15.488Z,79.30
2023-05-19T01:35:46.279Z,79.30
2023-05-19T01:38:19.426Z,80.00
2023-05-19T01:40:50.623Z,80.00
2023-05-19T01:43:23.013Z,79.40
2023-05-19T01:45:52.959Z,79.30
2023-05-19T01:48:24.123Z,79.10
2023-05-19T01:50:53.656Z,79.00
2023-05-19T01:53:23.102Z,79.50
2023-05-19T01:55:54.741Z,80.20
2023-05-19T01:58:42.524Z,80.30
2023-05-19T02:01:34.655Z,80.40
2023-05-19T02:04:40.657Z,80.60
2023-05-19T02:07:28.020Z,80.30
2023-05-19T02:10:09.249Z,80.10
2023-05-19T02:12:42.117Z,80.60
2023-05-19T02:15:14.509Z,80.30
2023-05-19T02:17:50.914Z,80.10
2023-05-19T02:20:22.056Z,80.30
2023-05-19T02:22:51.688Z,80.60
2023-05-19T02:25:21.545Z,80.40
2023-05-19T02:27:52.026Z,80.20
2023-05-19T02:30:21.617Z,80.40
2023-05-19T02:32:51.046Z,80.30
2023-05-19T02:35:21.004Z,80.20
2023-05-19T02:37:50.389Z,80.00
2023-05-19T02:40:20.056Z,80.10
2023-05-19T02:42:49.457Z,79.80
2023-05-19T02:45:19.306Z,79.80
2023-05-19T02:47:48.733Z,79.60
2023-05-19T02:50:18.318Z,79.90
2023-05-19T02:52:48.063Z,79.80
2023-05-19T02:55:17.702Z,80.00
2023-05-19T02:57:47.292Z,80.20
2023-05-19T03:00:17.178Z,80.50
2023-05-19T03:02:47.011Z,80.70
2023-05-19T03:05:16.663Z,81.00
2023-05-19T03:07:46.664Z,81.10
2023-05-19T03:10:16.213Z,81.50
2023-05-19T03:12:45.607Z,81.90
2023-05-19T03:15:16.532Z,81.90
2023-05-19T03:17:46.218Z,81.90
2023-05-19T03:20:15.887Z,82.00
2023-05-19T03:22:45.618Z,81.80
2023-05-19T03:25:15.168Z,81.80
2023-05-19T03:27:44.675Z,81.90
2023-05-19T03:30:15.092Z,81.90
2023-05-19T03:32:55.254Z,82.00
2023-05-19T03:35:24.817Z,82.00
2023-05-19T03:37:54.477Z,82.50
2023-05-19T03:40:23.981Z,82.60
2023-05-19T03:42:54.345Z,83.00
2023-05-19T03:45:23.983Z,83.60
2023-05-19T03:47:53.852Z,83.70
2023-05-19T03:50:31.631Z,83.80
2023-05-19T03:53:06.060Z,83.90
2023-05-19T03:55:37.489Z,84.10
2023-05-19T03:58:08.235Z,84.20
2023-05-19T04:00:38.383Z,84.10
2023-05-19T04:03:08.251Z,84.10
2023-05-19T04:05:38.084Z,83.90
2023-05-19T04:08:07.550Z,84.00
2023-05-19T04:10:37.002Z,83.70
2023-05-19T04:13:06.421Z,83.80
2023-05-19T04:15:36.314Z,83.80
2023-05-19T04:18:05.849Z,84.10
2023-05-19T04:20:35.324Z,84.30
2023-05-19T04:23:05.380Z,84.30
2023-05-19T04:25:36.236Z,84.20
2023-05-19T04:28:06.171Z,84.20
2023-05-19T04:30:36.656Z,84.10
2023-05-19T04:33:05.443Z,84.20
2023-05-19T04:35:34.953Z,84.20
2023-05-19T04:38:04.597Z,84.30
2023-05-19T04:40:34.350Z,84.20
2023-05-19T04:43:04.322Z,84.30
2023-05-19T04:45:34.316Z,84.30
2023-05-19T04:48:04.219Z,84.30
2023-05-19T04:50:34.289Z,84.20
2023-05-19T04:53:04.129Z,84.00
2023-05-19T04:55:34.211Z,83.70
2023-05-19T04:58:04.497Z,83.60
2023-05-19T05:00:35.841Z,83.60
2023-05-19T05:03:07.588Z,83.60
2023-05-19T05:05:37.331Z,83.70
2023-05-19T05:08:07.382Z,83.70
2023-05-19T05:10:38.467Z,83.70
2023-05-19T05:13:10.493Z,83.70
2023-05-19T05:15:40.030Z,83.60
2023-05-19T05:18:10.562Z,83.50
2023-05-19T05:20:40.940Z,83.50
2023-05-19T05:23:13.616Z,83.40
2023-05-19T05:25:44.784Z,83.50
2023-05-19T05:28:15.944Z,83.00
2023-05-19T05:30:46.301Z,82.60
2023-05-19T05:33:17.340Z,82.60
2023-05-19T05:35:47.024Z,82.60
2023-05-19T05:38:17.038Z,82.00
2023-05-19T05:40:46.437Z,82.10
2023-05-19T05:43:16.083Z,81.60
2023-05-19T05:45:47.274Z,81.40
2023-05-19T05:48:17.794Z,80.50
2023-05-19T05:50:49.985Z,80.50
2023-05-19T05:53:22.191Z,80.90
2023-05-19T05:55:53.698Z,79.80
2023-05-19T05:58:24.886Z,79.50
2023-05-19T06:00:56.097Z,79.00
2023-05-19T06:03:25.776Z,79.30
2023-05-19T06:05:55.490Z,78.80
2023-05-19T06:08:25.202Z,78.50
2023-05-19T06:10:54.916Z,77.90
2023-05-19T06:13:25.903Z,77.40
2023-05-19T06:15:55.616Z,77.30
2023-05-19T06:18:29.764Z,76.60
2023-05-19T06:20:59.619Z,77.20
2023-05-19T06:23:30.888Z,77.40
2023-05-19T06:26:01.396Z,76.90
2023-05-19T06:28:32.001Z,77.00
2023-05-19T06:31:02.236Z,77.00
2023-05-19T06:33:49.839Z,76.90
2023-05-19T06:36:19.294Z,76.00
2023-05-19T06:38:49.068Z,75.00
2023-05-19T06:41:18.526Z,74.30
2023-05-19T06:43:49.271Z,73.20
2023-05-19T06:46:20.469Z,72.80
2023-05-19T06:48:50.111Z,73.10
2023-05-19T06:51:22.610Z,72.10
2023-05-19T06:54:14.715Z,71.10
2023-05-19T06:56:43.638Z,71.90
2023-05-19T06:59:13.128Z,71.60
2023-05-19T07:01:42.806Z,71.60
2023-05-19T07:04:12.615Z,71.00
2023-05-19T07:06:42.591Z,71.20
2023-05-19T07:09:12.072Z,71.00
2023-05-19T07:11:42.398Z,71.10
2023-05-19T07:14:12.488Z,70.50
2023-05-19T07:16:43.082Z,69.00
2023-05-19T07:19:12.515Z,68.70
2023-05-19T07:21:42.560Z,68.10
2023-05-19T07:24:11.930Z,66.90
2023-05-19T07:26:42.799Z,65.00
2023-05-19T07:29:12.239Z,64.00
2023-05-19T07:31:41.762Z,65.60
2023-05-19T07:34:11.316Z,64.40
2023-05-19T07:36:41.493Z,64.90
2023-05-19T07:39:11.281Z,63.90
2023-05-19T07:41:40.994Z,64.10
2023-05-19T07:44:10.882Z,64.40
2023-05-19T07:46:40.432Z,62.10
2023-05-19T07:49:10.006Z,61.40
2023-05-19T07:51:41.921Z,61.40
2023-05-19T07:54:11.780Z,60.20
2023-05-19T07:56:41.337Z,59.90
2023-05-19T07:59:11.219Z,57.60
2023-05-19T08:01:40.758Z,59.60
2023-05-19T08:04:13.102Z,60.40
2023-05-19T08:06:44.274Z,58.30
2023-05-19T08:09:13.854Z,57.70
2023-05-19T08:11:44.714Z,57.80
2023-05-19T08:14:14.459Z,56.70
2023-05-19T08:16:45.696Z,57.00
2023-05-19T08:19:15.313Z,55.80
2023-05-19T08:21:45.328Z,56.50
2023-05-19T08:24:14.919Z,55.60
2023-05-19T08:26:45.422Z,56.70
2023-05-19T08:29:14.918Z,57.00
2023-05-19T08:31:44.499Z,56.30
2023-05-19T08:34:14.024Z,55.60
2023-05-19T08:36:45.242Z,55.30
2023-05-19T08:39:16.307Z,55.30
2023-05-19T08:41:45.918Z,55.70
2023-05-19T08:44:17.610Z,55.30
2023-05-19T08:46:47.943Z,55.40
2023-05-19T08:49:20.834Z,55.10
2023-05-19T08:52:15.876Z,55.10
2023-05-19T08:54:48.439Z,53.10
2023-05-19T08:57:19.439Z,54.40
2023-05-19T08:59:49.936Z,53.40
2023-05-19T09:02:20.461Z,52.00
2023-05-19T09:04:50.495Z,54.00
2023-05-19T09:07:21.104Z,53.10
2023-05-19T09:09:50.768Z,52.80
2023-05-19T09:12:21.288Z,53.30
2023-05-19T09:14:50.817Z,52.50
2023-05-19T09:17:20.843Z,53.10
2023-05-19T09:19:50.393Z,53.70
2023-05-19T09:22:20.621Z,52.70
2023-05-19T09:24:50.916Z,53.40
2023-05-19T09:27:23.909Z,54.30
2023-05-19T09:29:53.404Z,53.40
2023-05-19T09:32:28.926Z,53.00
2023-05-19T09:34:58.731Z,54.10
2023-05-19T09:37:29.320Z,53.80
2023-05-19T09:39:58.854Z,54.30
2023-05-19T09:42:30.028Z,53.60
2023-05-19T09:45:03.426Z,53.40
2023-05-19T09:47:42.746Z,51.30
2023-05-19T09:50:14.365Z,52.40
2023-05-19T09:52:46.747Z,53.40
2023-05-19T09:55:16.251Z,52.20
2023-05-19T09:57:46.427Z,50.90
2023-05-19T10:00:17.832Z,52.70
2023-05-19T10:02:48.461Z,49.20
2023-05-19T10:05:23.173Z,49.40
2023-05-19T10:07:54.522Z,49.40
2023-05-19T10:10:24.185Z,49.40
2023-05-19T10:12:55.074Z,48.90
2023-05-19T10:15:25.846Z,49.50
2023-05-19T10:17:56.127Z,49.80
2023-05-19T10:20:24.880Z,48.40
2023-05-19T10:22:54.452Z,48.30
2023-05-19T10:25:23.979Z,49.20
2023-05-19T10:27:59.134Z,49.00
2023-05-19T10:30:34.423Z,48.90
2023-05-19T10:33:07.759Z,47.70
2023-05-19T10:36:01.364Z,48.20
2023-05-19T10:38:46.020Z,47.20
2023-05-19T10:41:24.471Z,47.80
2023-05-19T10:44:11.953Z,48.20
2023-05-19T10:46:43.198Z,48.50
2023-05-19T10:49:15.735Z,48.40
2023-05-19T10:51:46.882Z,48.80
2023-05-19T10:54:18.234Z,49.00
2023-05-19T10:56:48.450Z,47.40
2023-05-19T10:59:37.159Z,47.30
2023-05-19T11:02:08.052Z,47.40
2023-05-19T11:04:51.655Z,45.50
2023-05-19T11:07:22.554Z,46.50
2023-05-19T11:09:53.165Z,45.00
2023-05-19T11:12:24.729Z,44.00
2023-05-19T11:14:58.961Z,44.30
2023-05-19T11:17:29.745Z,45.80
2023-05-19T11:20:00.122Z,46.80
2023-05-19T11:22:29.968Z,47.00
2023-05-19T11:24:59.719Z,46.20
2023-05-19T11:27:37.667Z,45.30
2023-05-19T11:30:11.914Z,45.40
2023-05-19T11:32:42.782Z,45.60
2023-05-19T11:35:12.467Z,46.30
2023-05-19T11:37:43.201Z,45.00
2023-05-19T11:40:15.678Z,44.50
2023-05-19T11:42:45.364Z,45.40
2023-05-19T11:45:14.801Z,45.00
2023-05-19T11:48:00.114Z,45.60
2023-05-19T11:50:18.055Z,45.10
2023-05-19T11:52:47.889Z,45.30
2023-05-19T11:55:19.457Z,46.60
2023-05-19T12:00:33.455Z,45.60
2023-05-19T12:03:03.217Z,45.90
2023-05-19T12:05:35.448Z,46.80
2023-05-19T12:08:04.965Z,46.70
2023-05-19T12:10:35.821Z,46.80
2023-05-19T12:13:08.736Z,47.30
2023-05-19T12:15:39.296Z,47.00
2023-05-19T12:18:09.708Z,45.00
2023-05-19T12:20:39.364Z,44.40
2023-05-19T12:23:09.689Z,44.30
2023-05-19T12:25:39.362Z,45.30
2023-05-19T12:28:08.902Z,45.10
2023-05-19T12:30:38.904Z,44.20
2023-05-19T12:33:09.964Z,44.00
2023-05-19T12:35:39.647Z,43.60
2023-05-19T12:38:09.234Z,44.00
2023-05-19T12:40:39.393Z,43.30
2023-05-19T12:43:09.733Z,42.90
2023-05-19T12:45:40.505Z,42.30
2023-05-19T12:48:14.649Z,42.20
2023-05-19T12:50:48.558Z,41.70
2023-05-19T12:53:18.150Z,41.70
2023-05-19T12:55:47.694Z,40.70
2023-05-19T12:58:17.935Z,41.50
2023-05-19T13:00:49.827Z,40.70
2023-05-19T13:03:21.219Z,40.30
2023-05-19T13:05:51.980Z,40.70
2023-05-19T13:08:25.623Z,40.00
2023-05-19T13:10:56.001Z,40.40
2023-05-19T13:13:24.637Z,41.00
2023-05-19T13:15:54.064Z,40.30
2023-05-19T13:18:24.498Z,40.20
2023-05-19T13:20:54.237Z,40.90
2023-05-19T13:23:23.588Z,40.70
2023-05-19T13:25:53.078Z,39.90
2023-05-19T13:28:22.534Z,39.40
2023-05-19T13:30:52.063Z,38.60
2023-05-19T13:33:21.611Z,39.50
2023-05-19T13:35:51.132Z,39.80
2023-05-19T13:38:20.598Z,39.10
2023-05-19T13:40:50.161Z,38.30
2023-05-19T13:43:19.676Z,36.90
2023-05-19T13:45:49.457Z,37.10
2023-05-19T13:48:19.102Z,37.50
2023-05-19T13:50:48.501Z,37.90
2023-05-19T13:53:17.961Z,36.70
2023-05-19T13:55:47.978Z,37.10
2023-05-19T13:58:18.022Z,38.20
2023-05-19T14:00:47.422Z,37.70
2023-05-19T14:03:18.597Z,38.10
2023-05-19T14:05:50.882Z,37.30
2023-05-19T14:08:20.931Z,37.60
2023-05-19T14:10:52.191Z,39.00
2023-05-19T14:13:32.513Z,40.10
2023-05-19T14:15:53.203Z,40.70
2023-05-19T14:18:22.662Z,41.40
2023-05-19T14:20:52.301Z,41.00
2023-05-19T14:23:21.726Z,41.00
2023-05-19T14:25:51.273Z,41.00
2023-05-19T14:28:20.743Z,41.40
2023-05-19T14:30:51.270Z,42.30
2023-05-19T14:33:21.422Z,41.80
2023-05-19T14:35:51.008Z,41.20
2023-05-19T14:38:20.530Z,40.90
2023-05-19T14:40:50.025Z,40.70
2023-05-19T14:43:19.561Z,39.60
2023-05-19T14:45:49.647Z,39.30
2023-05-19T14:48:19.273Z,39.70
2023-05-19T14:50:48.735Z,39.50
2023-05-19T14:53:18.146Z,39.90
2023-05-19T14:55:50.707Z,39.30
2023-05-19T15:00:51.220Z,38.00
2023-05-19T15:03:20.653Z,38.70
2023-05-19T15:05:50.111Z,39.40
2023-05-19T15:08:19.617Z,38.00
2023-05-19T15:10:52.268Z,38.80
2023-05-19T15:13:21.730Z,38.50
2023-05-19T15:16:04.702Z,37.30
2023-05-19T15:18:26.082Z,37.70
2023-05-19T15:20:55.698Z,37.70
2023-05-19T15:23:25.104Z,38.00
2023-05-19T15:25:54.625Z,38.50
2023-05-19T15:28:24.301Z,38.40
2023-05-19T15:30:53.777Z,36.90
2023-05-19T15:33:23.235Z,37.40
2023-05-19T15:35:53.007Z,37.70
2023-05-19T15:38:22.530Z,36.70
2023-05-19T15:40:51.960Z,36.90
2023-05-19T15:43:21.897Z,36.60
2023-05-19T15:45:53.039Z,36.90
2023-05-19T15:48:22.592Z,37.10
2023-05-19T15:50:52.625Z,35.90
2023-05-19T15:53:23.181Z,36.10
2023-05-19T15:55:52.725Z,36.90
2023-05-19T15:58:22.107Z,36.80
2023-05-19T16:00:51.638Z,36.60
2023-05-19T16:03:22.541Z,37.20
2023-05-19T16:05:53.804Z,37.90
2023-05-19T16:08:23.476Z,38.00
2023-05-19T16:10:54.785Z,38.80
2023-05-19T16:13:24.551Z,39.30
2023-05-19T16:15:54.203Z,39.90
2023-05-19T16:18:23.900Z,41.20
2023-05-19T16:20:53.423Z,41.80
2023-05-19T16:23:24.503Z,42.10
2023-05-19T16:25:54.905Z,42.00
2023-05-19T16:28:25.197Z,41.90
2023-05-19T16:31:00.084Z,41.70
2023-05-19T16:33:30.059Z,41.60
2023-05-19T16:36:00.052Z,42.20
2023-05-19T16:38:29.551Z,42.40
2023-05-19T16:40:59.050Z,42.20
2023-05-19T16:43:28.513Z,41.90
2023-05-19T16:45:57.938Z,41.90
2023-05-19T16:48:27.408Z,41.00
2023-05-19T16:50:56.896Z,40.90
2023-05-19T16:53:26.380Z,40.60
2023-05-19T16:55:55.935Z,40.90
2023-05-19T16:58:26.816Z,41.30
2023-05-19T17:00:57.805Z,41.30
2023-05-19T17:03:27.468Z,40.80
2023-05-19T17:05:57.054Z,40.90
2023-05-19T17:08:26.529Z,41.00
2023-05-19T17:10:56.006Z,41.30
2023-05-19T17:13:25.568Z,40.90
2023-05-19T17:15:55.076Z,40.70
2023-05-19T17:18:24.566Z,40.60
2023-05-19T17:20:53.968Z,40.70
2023-05-19T17:23:23.588Z,40.70
2023-05-19T17:25:55.616Z,40.70
2023-05-19T17:28:25.387Z,40.60
2023-05-19T17:30:54.863Z,40.80
2023-05-19T17:33:24.577Z,40.00
2023-05-19T17:35:54.141Z,40.00
2023-05-19T17:38:23.818Z,39.40
2023-05-19T17:40:53.829Z,39.30
2023-05-19T17:43:23.356Z,38.90
2023-05-19T17:45:52.987Z,38.10
2023-05-19T17:48:22.506Z,37.90
2023-05-19T17:50:52.100Z,38.00
2023-05-19T17:53:21.955Z,38.50
2023-05-19T17:55:57.491Z,39.00
2023-05-19T17:58:27.400Z,38.90
2023-05-19T18:00:57.530Z,39.20
2023-05-19T18:03:27.498Z,39.60
2023-05-19T18:05:57.382Z,39.60
2023-05-19T18:08:27.574Z,40.10
2023-05-19T18:10:57.816Z,39.80
2023-05-19T18:13:27.293Z,40.30
2023-05-19T18:15:58.358Z,40.50
2023-05-19T18:18:27.911Z,40.50
2023-05-19T18:20:57.320Z,40.60
2023-05-19T18:23:27.048Z,41.00
2023-05-19T18:25:56.525Z,41.10
2023-05-19T18:28:26.040Z,41.40
2023-05-19T18:31:02.963Z,41.40
2023-05-19T18:33:32.702Z,41.80
2023-05-19T18:36:02.230Z,42.00
2023-05-19T18:38:31.646Z,42.30
2023-05-19T18:41:01.257Z,42.60
2023-05-19T18:43:32.394Z,43.20
2023-05-19T18:46:02.006Z,43.00
2023-05-19T18:48:33.048Z,43.40
2023-05-19T18:51:03.894Z,43.50
2023-05-19T18:53:37.799Z,43.90
2023-05-19T18:56:08.052Z,44.30
2023-05-19T18:58:37.562Z,44.40
2023-05-19T19:01:07.195Z,45.00
2023-05-19T19:03:36.714Z,45.00
2023-05-19T19:06:06.889Z,45.30
2023-05-19T19:08:38.103Z,45.70
2023-05-19T19:11:09.708Z,45.80
2023-05-19T19:13:39.827Z,46.30
2023-05-19T19:16:10.242Z,46.20
2023-05-19T19:18:41.064Z,46.20
2023-05-19T19:21:11.138Z,46.40
2023-05-19T19:23:42.580Z,46.80
2023-05-19T19:26:12.199Z,46.80
2023-05-19T19:28:41.651Z,46.70
2023-05-19T19:31:11.104Z,47.00
2023-05-19T19:33:42.930Z,47.30
2023-05-19T19:36:13.105Z,47.10
2023-05-19T19:38:42.638Z,47.30
2023-05-19T19:41:12.048Z,47.70
2023-05-19T19:43:41.667Z,47.70
2023-05-19T19:46:12.398Z,47.50
2023-05-19T19:48:41.866Z,47.60
2023-05-19T19:51:11.460Z,48.00
2023-05-19T19:53:42.342Z,48.10
2023-05-19T19:56:11.776Z,48.30
2023-05-19T19:58:41.295Z,48.40
2023-05-19T20:01:12.312Z,48.60
2023-05-19T20:03:44.480Z,48.50
2023-05-19T20:06:14.357Z,48.80
2023-05-19T20:08:47.339Z,48.90
2023-05-19T20:11:18.389Z,49.10
2023-05-19T20:13:54.475Z,49.30
2023-05-19T20:16:25.533Z,49.20
2023-05-19T20:18:55.116Z,49.30
2023-05-19T20:21:24.630Z,49.50
2023-05-19T20:23:55.191Z,49.80
2023-05-19T20:26:25.945Z,49.70
2023-05-19T20:28:56.039Z,49.50
2023-05-19T20:31:26.004Z,49.90
2023-05-19T20:33:56.999Z,49.80
2023-05-19T20:36:27.622Z,50.00
2023-05-19T20:38:57.094Z,50.20
2023-05-19T20:41:27.371Z,50.60
2023-05-19T20:43:57.127Z,50.50
2023-05-19T20:46:26.621Z,50.70
2023-05-19T20:48:56.279Z,50.90
2023-05-19T20:51:28.220Z,51.20
2023-05-19T20:53:59.732Z,51.40
2023-05-19T20:56:30.134Z,51.60
2023-05-19T20:58:58.802Z,51.40
2023-05-19T21:01:29.978Z,52.20
2023-05-19T21:03:59.525Z,51.80
2023-05-19T21:06:29.075Z,52.30
2023-05-19T21:08:58.837Z,52.20
2023-05-19T21:11:29.383Z,52.80
2023-05-19T21:13:58.910Z,53.10
2023-05-19T21:16:28.395Z,52.80
2023-05-19T21:18:58.023Z,52.90
2023-05-19T21:21:29.134Z,53.50
2023-05-19T21:23:59.093Z,53.50
2023-05-19T21:26:28.936Z,53.90
2023-05-19T21:28:58.444Z,53.90
2023-05-19T21:31:28.356Z,53.80
2023-05-19T21:33:59.343Z,54.30
2023-05-19T21:36:28.884Z,54.20
2023-05-19T21:38:58.373Z,54.20
2023-05-19T21:41:28.457Z,54.40
2023-05-19T21:43:57.968Z,54.60
2023-05-19T21:46:29.003Z,54.60
2023-05-19T21:48:59.545Z,55.00
2023-05-19T21:51:29.123Z,55.30
2023-05-19T21:53:58.619Z,55.60
2023-05-19T21:56:28.093Z,56.00
2023-05-19T21:58:57.705Z,56.00
2023-05-19T22:01:27.710Z,56.20
2023-05-19T22:03:57.176Z,56.20
2023-05-19T22:06:26.759Z,56.20
2023-05-19T22:08:58.030Z,56.30
2023-05-19T22:11:27.491Z,56.40
2023-05-19T22:13:56.986Z,56.80
2023-05-19T22:16:26.586Z,56.80
2023-05-19T22:18:56.125Z,57.10
2023-05-19T22:21:25.678Z,57.30
2023-05-19T22:23:55.109Z,57.50
2023-05-19T22:26:24.626Z,57.40
2023-05-19T22:28:54.797Z,57.60
2023-05-19T22:31:24.378Z,57.80
2023-05-19T22:33:53.872Z,58.10
2023-05-19T22:36:23.260Z,58.00
2023-05-19T22:38:52.768Z,58.40
2023-05-19T22:41:22.378Z,58.40
2023-05-19T22:43:51.826Z,58.70
2023-05-19T22:46:21.306Z,58.70
2023-05-19T22:48:50.750Z,58.80
2023-05-19T22:51:20.549Z,59.10
2023-05-19T22:53:49.988Z,59.30
2023-05-19T22:56:19.457Z,59.20
2023-05-19T22:58:48.944Z,59.30
2023-05-19T23:01:18.716Z,59.50
2023-05-19T23:03:48.302Z,59.70
2023-05-19T23:06:17.765Z,59.70
2023-05-19T23:08:47.594Z,59.70
2023-05-19T23:11:17.104Z,59.90
2023-05-19T23:13:46.525Z,60.10
2023-05-19T23:16:16.056Z,60.10
2023-05-19T23:18:45.638Z,60.10
2023-05-19T23:21:15.200Z,60.30
2023-05-19T23:23:44.721Z,60.50
2023-05-19T23:26:14.157Z,60.60
2023-05-19T23:28:44.013Z,60.60
2023-05-19T23:31:13.495Z,60.90
2023-05-19T23:33:43.060Z,60.80
2023-05-19T23:36:12.766Z,60.80
2023-05-19T23:38:42.259Z,61.10
2023-05-19T23:41:11.768Z,61.10
2023-05-19T23:43:41.203Z,61.40
2023-05-19T23:46:10.771Z,61.40
2023-05-19T23:48:40.335Z,61.70
2023-05-19T23:51:09.912Z,61.80
2023-05-19T23:53:39.640Z,62.00
2023-05-19T23:56:10.841Z,62.40
2023-05-19T23:58:40.288Z,62.20
